createdAt,value
2022-08-20T00:00:34.889Z,97984.94
2022-08-20T00:03:08.916Z,97987.69
2022-08-20T00:05:43.616Z,97986.50
2022-08-20T00:08:15.181Z,97989.41
2022-08-20T00:10:53.651Z,97987.16
2022-08-20T00:13:31.454Z,97989.19
2022-08-20T00:16:05.210Z,97993.66
2022-08-20T00:18:37.079Z,97993.47
2022-08-20T00:21:11.309Z,97992.88
2022-08-20T00:23:53.092Z,98000.34
2022-08-20T00:26:23.970Z,98008.16
2022-08-20T00:28:54.966Z,97995.38
2022-08-20T00:31:28.067Z,97997.94
2022-08-20T00:33:58.247Z,98001.91
2022-08-20T00:36:30.021Z,98000.91
2022-08-20T00:39:03.680Z,97999.56
2022-08-20T00:41:34.305Z,98003.09
2022-08-20T00:44:13.541Z,98005.81
2022-08-20T00:46:48.666Z,98012.78
2022-08-20T00:49:22.920Z,98017.53
2022-08-20T00:52:02.234Z,98015.72
2022-08-20T00:54:41.738Z,98018.94
2022-08-20T00:57:20.348Z,98010.34
2022-08-20T00:59:53.412Z,98009.19
2022-08-20T01:02:31.008Z,98016.28
2022-08-20T01:05:01.502Z,98015.34
2022-08-20T01:07:35.143Z,98024.94
2022-08-20T01:10:11.568Z,98022.06
2022-08-20T01:12:49.021Z,98020.47
2022-08-20T01:15:30.810Z,98023.91
2022-08-20T01:18:07.640Z,98026.75
2022-08-20T01:20:45.548Z,98025.72
2022-08-20T01:23:30.110Z,98031.72
2022-08-20T01:26:11.020Z,98031.13
2022-08-20T01:28:46.451Z,98028.78
2022-08-20T01:31:22.092Z,98030.56
2022-08-20T01:33:54.976Z,98039.53
2022-08-20T01:36:30.398Z,98036.19
2022-08-20T01:39:01.734Z,98045.94
2022-08-20T01:41:57.252Z,98041.19
2022-08-20T01:44:27.994Z,98042.81
2022-08-20T01:47:12.451Z,98037.38
2022-08-20T01:49:51.045Z,98042.44
2022-08-20T01:52:33.888Z,98047.88
2022-08-20T01:55:04.450Z,98050.47
2022-08-20T01:57:39.253Z,98050.72
2022-08-20T02:00:19.835Z,98050.00
2022-08-20T02:02:52.003Z,98051.88
2022-08-20T02:05:24.012Z,98051.09
2022-08-20T02:08:00.859Z,98049.56
2022-08-20T02:10:32.651Z,98063.75
2022-08-20T02:13:10.193Z,98051.28
2022-08-20T02:15:43.086Z,98053.28
2022-08-20T02:18:18.798Z,98051.28
2022-08-20T02:20:50.868Z,98052.56
2022-08-20T02:23:21.453Z,98062.97
2022-08-20T02:25:52.073Z,98070.47
2022-08-20T02:28:28.203Z,98062.25
2022-08-20T02:31:00.543Z,98063.94
2022-08-20T02:33:30.601Z,98065.19
2022-08-20T02:36:00.731Z,98060.22
2022-08-20T02:38:30.788Z,98062.59
2022-08-20T02:41:00.791Z,98057.81
2022-08-20T02:43:34.224Z,98055.59
2022-08-20T02:46:04.580Z,98055.72
2022-08-20T02:48:35.701Z,98054.97
2022-08-20T02:51:09.670Z,98048.50
2022-08-20T02:53:42.878Z,98050.19
2022-08-20T02:56:14.058Z,98044.25
2022-08-20T02:58:47.724Z,98036.09
2022-08-20T03:01:21.133Z,98040.34
2022-08-20T03:03:51.265Z,98043.25
2022-08-20T03:06:22.150Z,98044.38
2022-08-20T03:08:52.889Z,98043.25
2022-08-20T03:11:23.371Z,98041.22
2022-08-20T03:13:56.124Z,98040.09
2022-08-20T03:16:27.471Z,98036.50
2022-08-20T03:18:58.490Z,98041.13
2022-08-20T03:21:29.106Z,98041.00
2022-08-20T03:23:59.300Z,98038.44
2022-08-20T03:26:29.356Z,98036.69
2022-08-20T03:29:02.161Z,98035.91
2022-08-20T03:31:32.435Z,98034.00
2022-08-20T03:34:02.460Z,98031.09
2022-08-20T03:36:33.980Z,98021.06
2022-08-20T03:39:11.674Z,98030.22
2022-08-20T03:41:41.984Z,98029.13
2022-08-20T03:44:14.692Z,98032.09
2022-08-20T03:46:44.820Z,98033.56
2022-08-20T03:49:14.845Z,98046.63
2022-08-20T03:51:57.531Z,98049.31
2022-08-20T03:54:31.592Z,98049.91
2022-08-20T03:57:03.811Z,98047.97
2022-08-20T03:59:46.562Z,98049.88
2022-08-20T04:02:28.344Z,98064.75
2022-08-20T04:04:58.373Z,98062.63
2022-08-20T04:07:29.010Z,98061.28
2022-08-20T04:09:59.441Z,98052.78
2022-08-20T04:12:29.462Z,98059.25
2022-08-20T04:15:02.187Z,98056.69
2022-08-20T04:17:33.758Z,98056.59
2022-08-20T04:20:07.480Z,98057.16
2022-08-20T04:22:41.556Z,98066.09
2022-08-20T04:25:16.000Z,98074.59
2022-08-20T04:27:46.506Z,98070.00
2022-08-20T04:30:22.303Z,98069.31
2022-08-20T04:32:52.425Z,98068.06
2022-08-20T04:35:24.771Z,98071.63
2022-08-20T04:38:03.813Z,98070.16
2022-08-20T04:40:46.435Z,98075.06
2022-08-20T04:43:17.129Z,98078.19
2022-08-20T04:45:52.079Z,98076.59
2022-08-20T04:48:24.764Z,98082.16
2022-08-20T04:50:55.835Z,98080.50
2022-08-20T04:53:31.368Z,98087.31
2022-08-20T04:56:04.749Z,98092.31
2022-08-20T04:58:39.293Z,98088.38
2022-08-20T05:01:15.080Z,98100.00
2022-08-20T05:03:46.038Z,98096.81
2022-08-20T05:06:16.404Z,98100.41
2022-08-20T05:08:47.368Z,98092.13
2022-08-20T05:11:34.846Z,98100.72
2022-08-20T05:14:09.305Z,98096.28
2022-08-20T05:16:44.354Z,98103.94
2022-08-20T05:19:16.575Z,98105.75
2022-08-20T05:21:46.556Z,98105.38
2022-08-20T05:24:16.552Z,98112.69
2022-08-20T05:26:46.857Z,98108.47
2022-08-20T05:29:16.855Z,98111.94
2022-08-20T05:31:49.421Z,98112.59
2022-08-20T05:34:19.530Z,98116.91
2022-08-20T05:36:54.077Z,98119.53
2022-08-20T05:39:26.077Z,98126.50
2022-08-20T05:41:56.794Z,98127.25
2022-08-20T05:44:26.777Z,98125.81
2022-08-20T05:46:59.441Z,98134.06
2022-08-20T05:49:30.570Z,98129.56
2022-08-20T05:52:01.195Z,98124.47
2022-08-20T05:54:31.317Z,98127.56
2022-08-20T05:57:01.839Z,98136.50
2022-08-20T05:59:34.474Z,98139.59
2022-08-20T06:02:27.293Z,98133.63
2022-08-20T06:04:56.372Z,98131.84
2022-08-20T06:07:26.554Z,98128.13
2022-08-20T06:09:56.616Z,98129.34
2022-08-20T06:12:26.627Z,98128.97
2022-08-20T06:14:56.625Z,98128.28
2022-08-20T06:17:34.765Z,98136.09
2022-08-20T06:20:13.405Z,98137.38
2022-08-20T06:22:45.081Z,98130.66
2022-08-20T06:25:15.239Z,98135.75
2022-08-20T06:27:46.493Z,98137.19
2022-08-20T06:30:19.353Z,98136.16
2022-08-20T06:32:51.998Z,98141.84
2022-08-20T06:35:22.240Z,98139.88
2022-08-20T06:37:53.039Z,98136.69
2022-08-20T06:40:26.522Z,98151.06
2022-08-20T06:42:57.418Z,98148.06
2022-08-20T06:45:44.006Z,98152.16
2022-08-20T06:48:17.559Z,98142.53
2022-08-20T06:50:50.233Z,98141.63
2022-08-20T06:53:23.384Z,98145.06
2022-08-20T06:55:58.112Z,98147.41
2022-08-20T06:58:38.231Z,98145.31
2022-08-20T07:01:10.839Z,98143.19
2022-08-20T07:03:55.577Z,98146.53
2022-08-20T07:06:27.735Z,98154.56
2022-08-20T07:08:58.533Z,98151.97
2022-08-20T07:11:29.357Z,98147.72
2022-08-20T07:14:01.408Z,98149.41
2022-08-20T07:16:31.515Z,98152.72
2022-08-20T07:19:04.188Z,98151.81
2022-08-20T07:21:34.910Z,98154.84
2022-08-20T07:24:05.484Z,98156.59
2022-08-20T07:26:35.847Z,98158.44
2022-08-20T07:29:06.812Z,98157.34
2022-08-20T07:31:49.362Z,98165.72
2022-08-20T07:34:22.658Z,98157.81
2022-08-20T07:36:52.990Z,98162.78
2022-08-20T07:39:25.060Z,98165.25
2022-08-20T07:42:03.395Z,98164.69
2022-08-20T07:44:33.867Z,98165.06
2022-08-20T07:47:04.750Z,98163.31
2022-08-20T07:49:41.089Z,98165.28
2022-08-20T07:52:11.145Z,98172.06
2022-08-20T07:54:41.129Z,98166.31
2022-08-20T07:57:12.235Z,98170.44
2022-08-20T07:59:42.281Z,98176.00
2022-08-20T08:02:12.707Z,98178.25
2022-08-20T08:04:45.621Z,98170.78
2022-08-20T08:07:16.890Z,98175.06
2022-08-20T08:09:48.767Z,98171.06
2022-08-20T08:12:20.902Z,98172.25
2022-08-20T08:14:53.430Z,98171.75
2022-08-20T08:17:23.730Z,98176.03
2022-08-20T08:19:56.916Z,98174.59
2022-08-20T08:22:29.543Z,98168.16
2022-08-20T08:25:02.265Z,98167.00
2022-08-20T08:27:34.458Z,98161.31
2022-08-20T08:30:05.731Z,98161.59
2022-08-20T08:32:37.567Z,98162.28
2022-08-20T08:35:12.552Z,98162.38
2022-08-20T08:37:42.655Z,98156.53
2022-08-20T08:40:13.936Z,98151.97
2022-08-20T08:42:54.012Z,98152.53
2022-08-20T08:45:25.436Z,98156.03
2022-08-20T08:47:55.997Z,98154.53
2022-08-20T08:50:54.248Z,98150.94
2022-08-20T08:53:33.498Z,98152.66
2022-08-20T08:56:04.018Z,98157.78
2022-08-20T08:58:35.384Z,98152.31
2022-08-20T09:01:25.399Z,98148.00
2022-08-20T09:04:06.615Z,98147.00
2022-08-20T09:06:40.699Z,98144.94
2022-08-20T09:09:24.097Z,98136.78
2022-08-20T09:11:59.827Z,98139.22
2022-08-20T09:14:29.794Z,98147.53
2022-08-20T09:16:59.818Z,98138.47
2022-08-20T09:19:30.362Z,98142.94
2022-08-20T09:22:10.216Z,98143.16
2022-08-20T09:24:40.705Z,98156.28
2022-08-20T09:27:11.067Z,98159.47
2022-08-20T09:29:42.287Z,98162.97
2022-08-20T09:32:19.146Z,98150.47
2022-08-20T09:34:56.321Z,98126.97
2022-08-20T09:37:37.314Z,98127.09
2022-08-20T09:40:10.869Z,98124.69
2022-08-20T09:42:42.706Z,98124.75
2022-08-20T09:45:15.054Z,98124.72
2022-08-20T09:47:55.033Z,98123.06
2022-08-20T09:50:27.173Z,98117.41
2022-08-20T09:53:04.030Z,98111.56
2022-08-20T09:55:39.528Z,98127.19
2022-08-20T09:58:24.083Z,98133.41
2022-08-20T10:00:55.175Z,98138.34
2022-08-20T10:03:25.450Z,98141.19
2022-08-20T10:05:55.470Z,98133.41
2022-08-20T10:08:28.813Z,98136.44
2022-08-20T10:10:59.030Z,98141.94
2022-08-20T10:13:29.165Z,98138.28
2022-08-20T10:15:59.723Z,98137.69
2022-08-20T10:18:29.952Z,98146.28
2022-08-20T10:21:00.089Z,98142.66
2022-08-20T10:23:32.972Z,98136.78
2022-08-20T10:26:02.972Z,98131.25
2022-08-20T10:28:33.108Z,98130.59
2022-08-20T10:31:04.717Z,98127.97
2022-08-20T10:33:34.738Z,98134.72
2022-08-20T10:36:10.485Z,98128.81
2022-08-20T10:38:43.398Z,98130.25
2022-08-20T10:41:14.236Z,98121.72
2022-08-20T10:43:44.384Z,98124.44
2022-08-20T10:46:14.837Z,98124.16
2022-08-20T10:48:45.173Z,98124.94
2022-08-20T10:51:15.399Z,98126.75
2022-08-20T10:53:48.823Z,98121.47
2022-08-20T10:56:18.862Z,98115.66
2022-08-20T10:58:49.009Z,98112.88
2022-08-20T11:01:32.876Z,98116.19
2022-08-20T11:04:04.857Z,98121.16
2022-08-20T11:06:34.869Z,98131.16
2022-08-20T11:09:09.295Z,98133.28
2022-08-20T11:11:39.872Z,98145.69
2022-08-20T11:14:09.866Z,98147.75
2022-08-20T11:16:39.918Z,98146.41
2022-08-20T11:19:09.937Z,98140.81
2022-08-20T11:21:39.978Z,98146.25
2022-08-20T11:24:12.636Z,98149.34
2022-08-20T11:26:43.308Z,98144.56
2022-08-20T11:29:13.361Z,98143.84
2022-08-20T11:31:43.685Z,98151.28
2022-08-20T11:34:13.756Z,98145.31
2022-08-20T11:36:44.262Z,98149.03
2022-08-20T11:39:17.563Z,98151.72
2022-08-20T11:41:48.184Z,98152.66
2022-08-20T11:44:24.869Z,98164.94
2022-08-20T11:46:55.263Z,98175.41
2022-08-20T11:49:25.291Z,98178.22
2022-08-20T11:51:55.322Z,98168.88
2022-08-20T11:54:28.987Z,98171.31
2022-08-20T11:56:59.716Z,98177.63
2022-08-20T11:59:30.416Z,98165.53
2022-08-20T12:02:02.411Z,98156.22
2022-08-20T12:04:35.303Z,98164.94
2022-08-20T12:07:13.148Z,98159.44
2022-08-20T12:09:50.328Z,98162.91
2022-08-20T12:12:24.056Z,98172.75
2022-08-20T12:14:54.673Z,98163.19
2022-08-20T12:17:28.857Z,98162.00
2022-08-20T12:20:02.524Z,98167.88
2022-08-20T12:22:32.966Z,98176.41
2022-08-20T12:25:07.012Z,98168.91
2022-08-20T12:27:40.031Z,98170.59
2022-08-20T12:30:15.789Z,98168.97
2022-08-20T12:32:46.077Z,98171.59
2022-08-20T12:35:19.241Z,98165.31
2022-08-20T12:37:49.769Z,98163.97
2022-08-20T12:40:32.329Z,98163.38
2022-08-20T12:43:02.895Z,98153.81
2022-08-20T12:45:34.079Z,98150.25
2022-08-20T12:48:08.290Z,98150.16
2022-08-20T12:50:40.870Z,98143.41
2022-08-20T12:53:11.585Z,98146.88
2022-08-20T12:55:44.370Z,98144.19
2022-08-20T12:58:15.423Z,98153.47
2022-08-20T13:00:50.394Z,98153.03
2022-08-20T13:03:22.918Z,98157.41
2022-08-20T13:05:53.149Z,98148.31
2022-08-20T13:08:23.148Z,98147.25
2022-08-20T13:10:55.751Z,98152.41
2022-08-20T13:13:25.715Z,98151.81
2022-08-20T13:15:55.719Z,98145.16
2022-08-20T13:18:25.739Z,98146.72
2022-08-20T13:20:55.914Z,98153.06
2022-08-20T13:23:25.987Z,98147.72
2022-08-20T13:25:58.632Z,98150.47
2022-08-20T13:28:28.642Z,98156.19
2022-08-20T13:30:58.652Z,98156.41
2022-08-20T13:33:29.046Z,98168.16
2022-08-20T13:36:00.389Z,98180.81
2022-08-20T13:38:32.702Z,98196.09
2022-08-20T13:41:05.366Z,98187.09
2022-08-20T13:43:35.337Z,98185.34
2022-08-20T13:46:06.546Z,98183.34
2022-08-20T13:48:37.216Z,98184.22
2022-08-20T13:51:07.490Z,98184.97
2022-08-20T13:53:37.595Z,98170.56
2022-08-20T13:56:10.957Z,98170.63
2022-08-20T13:58:41.079Z,98155.13
2022-08-20T14:01:11.286Z,98165.56
2022-08-20T14:03:42.758Z,98167.13
2022-08-20T14:06:12.847Z,98167.63
2022-08-20T14:08:42.891Z,98180.09
2022-08-20T14:11:17.789Z,98166.03
2022-08-20T14:13:48.001Z,98166.50
2022-08-20T14:16:25.327Z,98166.75
2022-08-20T14:18:58.271Z,98167.66
2022-08-20T14:21:28.339Z,98160.34
2022-08-20T14:23:58.359Z,98157.78
2022-08-20T14:26:31.008Z,98150.44
2022-08-20T14:29:01.181Z,98147.00
2022-08-20T14:31:31.145Z,98146.72
2022-08-20T14:34:01.149Z,98141.75
2022-08-20T14:36:31.185Z,98140.72
2022-08-20T14:39:01.263Z,98131.63
2022-08-20T14:41:33.820Z,98123.31
2022-08-20T14:44:05.227Z,98123.47
2022-08-20T14:46:35.576Z,98120.09
2022-08-20T14:49:05.792Z,98123.09
2022-08-20T14:51:37.395Z,98119.97
2022-08-20T14:54:07.856Z,98119.22
2022-08-20T14:56:40.487Z,98118.75
2022-08-20T14:59:10.709Z,98118.41
2022-08-20T15:01:40.809Z,98120.81
2022-08-20T15:04:10.881Z,98108.31
2022-08-20T15:06:41.366Z,98103.72
2022-08-20T15:09:11.548Z,98105.25
2022-08-20T15:11:44.264Z,98110.28
2022-08-20T15:14:15.146Z,98100.13
2022-08-20T15:16:48.643Z,98101.34
2022-08-20T15:19:18.786Z,98093.41
2022-08-20T15:21:48.965Z,98101.34
2022-08-20T15:24:19.791Z,98090.50
2022-08-20T15:26:52.432Z,98080.78
2022-08-20T15:29:23.016Z,98082.34
2022-08-20T15:31:53.974Z,98093.50
2022-08-20T15:34:23.979Z,98089.13
2022-08-20T15:36:53.942Z,98080.75
2022-08-20T15:39:23.911Z,98080.19
2022-08-20T15:41:56.519Z,98081.91
2022-08-20T15:44:26.554Z,98081.91
2022-08-20T15:46:56.676Z,98077.09
2022-08-20T15:49:27.334Z,98078.69
2022-08-20T15:51:57.406Z,98077.94
2022-08-20T15:54:29.831Z,98077.81
2022-08-20T15:57:09.985Z,98089.41
2022-08-20T16:00:00.905Z,98092.50
2022-08-20T16:03:07.237Z,98094.44
2022-08-20T16:05:48.153Z,98093.78
2022-08-20T16:08:50.202Z,98093.75
2022-08-20T16:11:44.037Z,98091.00
2022-08-20T16:14:22.717Z,98098.63
2022-08-20T16:17:01.680Z,98095.16
2022-08-20T16:19:43.992Z,98093.19
2022-08-20T16:22:20.241Z,98094.78
2022-08-20T16:24:50.772Z,98095.75
2022-08-20T16:27:36.937Z,98095.41
2022-08-20T16:30:20.882Z,98090.38
2022-08-20T16:33:01.115Z,98100.13
2022-08-20T16:35:36.478Z,98097.34
2022-08-20T16:38:21.233Z,98095.53
2022-08-20T16:40:58.342Z,98103.75
2022-08-20T16:43:37.022Z,98112.47
2022-08-20T16:46:20.356Z,98115.94
2022-08-20T16:48:58.328Z,98110.25
2022-08-20T16:51:38.254Z,98108.66
2022-08-20T16:54:09.262Z,98107.25
2022-08-20T16:56:42.629Z,98110.22
2022-08-20T16:59:25.989Z,98102.25
2022-08-20T17:02:10.638Z,98105.94
2022-08-20T17:04:58.452Z,98107.75
2022-08-20T17:07:33.582Z,98093.25
2022-08-20T17:10:20.807Z,98092.44
2022-08-20T17:12:59.838Z,98092.94
2022-08-20T17:15:35.163Z,98088.66
2022-08-20T17:18:31.237Z,98101.31
2022-08-20T17:21:08.997Z,98091.94
2022-08-20T17:23:55.165Z,98094.75
2022-08-20T17:26:35.196Z,98090.59
2022-08-20T17:29:16.067Z,98093.72
2022-08-20T17:31:51.136Z,98088.19
2022-08-20T17:34:27.869Z,98093.16
2022-08-20T17:37:01.477Z,98099.34
2022-08-20T17:39:34.026Z,98101.09
2022-08-20T17:42:11.870Z,98101.47
2022-08-20T17:44:52.944Z,98096.72
2022-08-20T17:47:34.901Z,98099.16
2022-08-20T17:50:16.391Z,98098.50
2022-08-20T17:52:53.600Z,98103.97
2022-08-20T17:55:25.050Z,98102.03
2022-08-20T17:58:00.992Z,98104.69
2022-08-20T18:00:31.560Z,98098.59
2022-08-20T18:03:21.515Z,98098.53
2022-08-20T18:06:13.550Z,98102.56
2022-08-20T18:08:59.359Z,98097.56
2022-08-20T18:11:39.536Z,98110.50
2022-08-20T18:14:37.182Z,98104.59
2022-08-20T18:17:19.325Z,98104.59
2022-08-20T18:20:26.684Z,98105.59
2022-08-20T18:23:06.471Z,98102.63
2022-08-20T18:25:43.720Z,98108.97
2022-08-20T18:28:21.791Z,98103.41
2022-08-20T18:30:57.285Z,98113.09
2022-08-20T18:33:35.775Z,98114.44
2022-08-20T18:36:11.618Z,98113.78
2022-08-20T18:38:45.616Z,98114.13
2022-08-20T18:41:28.666Z,98121.31
2022-08-20T18:44:14.083Z,98119.84
2022-08-20T18:46:56.748Z,98122.66
2022-08-20T18:49:34.162Z,98119.66
2022-08-20T18:52:15.366Z,98118.31
2022-08-20T18:54:58.114Z,98121.03
2022-08-20T18:57:41.308Z,98125.13
2022-08-20T19:00:18.421Z,98127.81
2022-08-20T19:03:00.540Z,98126.13
2022-08-20T19:06:02.116Z,98129.09
2022-08-20T19:08:45.586Z,98133.91
2022-08-20T19:12:01.554Z,98125.78
2022-08-20T19:14:52.263Z,98141.09
2022-08-20T19:17:51.252Z,98143.50
2022-08-20T19:20:24.575Z,98137.94
2022-08-20T19:23:02.418Z,98130.59
2022-08-20T19:25:36.186Z,98147.13
2022-08-20T19:28:21.842Z,98140.88
2022-08-20T19:30:52.398Z,98143.44
2022-08-20T19:33:43.821Z,98146.97
2022-08-20T19:36:21.013Z,98146.00
2022-08-20T19:38:56.500Z,98140.84
2022-08-20T19:41:31.677Z,98146.56
2022-08-20T19:44:05.385Z,98143.34
2022-08-20T19:46:41.178Z,98144.81
2022-08-20T19:49:32.241Z,98149.84
2022-08-20T19:52:16.462Z,98147.09
2022-08-20T19:54:52.224Z,98150.66
2022-08-20T19:57:25.292Z,98148.56
2022-08-20T20:00:04.585Z,98155.16
2022-08-20T20:02:37.393Z,98152.59
2022-08-20T20:05:10.290Z,98147.09
2022-08-20T20:07:44.536Z,98157.84
2022-08-20T20:10:32.705Z,98159.66
2022-08-20T20:13:14.054Z,98153.59
2022-08-20T20:15:47.553Z,98155.19
2022-08-20T20:18:17.629Z,98152.03
2022-08-20T20:20:57.715Z,98152.63
2022-08-20T20:23:45.821Z,98159.44
2022-08-20T20:26:22.401Z,98161.31
2022-08-20T20:28:56.688Z,98155.72
2022-08-20T20:31:34.405Z,98155.16
2022-08-20T20:34:13.138Z,98157.06
2022-08-20T20:36:46.774Z,98160.06
2022-08-20T20:39:31.928Z,98162.28
2022-08-20T20:42:05.826Z,98165.56
2022-08-20T20:44:39.428Z,98159.38
2022-08-20T20:47:26.654Z,98165.06
2022-08-20T20:50:02.037Z,98166.94
2022-08-20T20:52:35.191Z,98159.22
2022-08-20T20:55:16.139Z,98164.78
2022-08-20T20:57:47.062Z,98170.16
2022-08-20T21:00:19.850Z,98169.44
2022-08-20T21:02:52.694Z,98167.81
2022-08-20T21:05:26.161Z,98169.84
2022-08-20T21:08:00.547Z,98173.13
2022-08-20T21:10:35.009Z,98166.41
2022-08-20T21:13:08.146Z,98173.69
2022-08-20T21:15:40.796Z,98167.56
2022-08-20T21:18:14.281Z,98169.56
2022-08-20T21:20:44.350Z,98167.28
2022-08-20T21:23:14.700Z,98171.28
2022-08-20T21:25:44.907Z,98173.13
2022-08-20T21:28:15.531Z,98166.97
2022-08-20T21:30:45.549Z,98169.19
2022-08-20T21:33:18.205Z,98164.16
2022-08-20T21:35:48.200Z,98166.34
2022-08-20T21:38:18.491Z,98168.78
2022-08-20T21:40:48.549Z,98163.28
2022-08-20T21:43:18.891Z,98173.97
2022-08-20T21:45:49.663Z,98174.63
2022-08-20T21:48:22.649Z,98173.34
2022-08-20T21:50:52.962Z,98170.97
2022-08-20T21:53:23.028Z,98175.38
2022-08-20T21:55:53.547Z,98181.78
2022-08-20T21:58:24.291Z,98185.94
2022-08-20T22:01:02.183Z,98193.25
2022-08-20T22:03:41.076Z,98196.88
2022-08-20T22:06:14.770Z,98191.59
2022-08-20T22:08:45.200Z,98196.50
2022-08-20T22:11:16.932Z,98193.34
2022-08-20T22:13:49.092Z,98192.03
2022-08-20T22:16:23.171Z,98189.47
2022-08-20T22:18:55.827Z,98196.50
2022-08-20T22:21:29.953Z,98195.13
2022-08-20T22:24:07.499Z,98197.34
2022-08-20T22:26:40.998Z,98200.84
2022-08-20T22:29:15.233Z,98205.81
2022-08-20T22:31:46.695Z,98206.03
2022-08-20T22:34:23.228Z,98209.38
2022-08-20T22:36:57.109Z,98204.44
2022-08-20T22:39:27.272Z,98199.97
2022-08-20T22:41:57.858Z,98200.34
2022-08-20T22:44:28.119Z,98197.78
2022-08-20T22:47:03.978Z,98201.50
2022-08-20T22:49:41.671Z,98198.59
2022-08-20T22:52:13.975Z,98204.56
2022-08-20T22:54:45.502Z,98201.81
2022-08-20T22:57:20.361Z,98196.09
2022-08-20T22:59:53.209Z,98201.25
2022-08-20T23:02:26.709Z,98197.47
2022-08-20T23:04:59.578Z,98203.19
2022-08-20T23:07:29.709Z,98200.84
2022-08-20T23:09:59.838Z,98196.53
2022-08-20T23:12:29.796Z,98193.25
2022-08-20T23:14:59.923Z,98190.47
2022-08-20T23:17:30.121Z,98200.34
2022-08-20T23:20:03.177Z,98195.25
2022-08-20T23:22:33.323Z,98199.59
2022-08-20T23:25:03.481Z,98194.06
2022-08-20T23:27:33.657Z,98199.78
2022-08-20T23:30:03.703Z,98200.03
2022-08-20T23:32:33.950Z,98201.78
2022-08-20T23:35:08.770Z,98198.47
2022-08-20T23:37:44.689Z,98196.25
2022-08-20T23:40:16.782Z,98195.91
2022-08-20T23:42:46.884Z,98194.53
2022-08-20T23:45:17.232Z,98188.97
2022-08-20T23:47:48.016Z,98189.03
2022-08-20T23:50:25.866Z,98194.13
2022-08-20T23:52:56.310Z,98193.00
2022-08-20T23:55:26.639Z,98186.72
2022-08-20T23:57:57.169Z,98187.69
